Accueil
METAR-TAF:

METAR-TAF

Aéroports :

Aéroport d'Adrar - Touat - Cheikh Sidi Mohamed Belkebir

Adrar, Algérie

latitude: 27-53N, longitude: 000-17W, altitude: 263 m

Observation

Le bulletin a été fait il y a 42 minutes, à 15:00 UTC
Vent 9 kt de est, variant entre nord-est et sud-est
Température 47°C
Pression 1007 hPa
Visibilité 10 km ou plus
pas de nuages en-dessous de 1500 mètres et pas de cumulonimbus.

METAR: DAUA 211500Z 09009KT 050V130 CAVOK 47/// Q1007

Heure: 16:42 (15:42 UTC)

Prévision

Le bulletin a été fait il y a 4 heures et 42 minutes, à 11:00 UTC
Prévision valable du 21 à 12 UTC au 22 à 12 UTC
Vent 10 kt de est
Visibilité 10 km ou plus
pas de nuages en-dessous de 1500 mètres et pas de cumulonimbus.
Probabilité 30% :
Temporairement
du 21 à 12 UTC au 21 à 18 UTC
Vent 15 kt de est avec des rafales jusqu'à 25 kt
Chasse-sable basse,

TAF: DAUA 211100Z 2112/2212 10010KT CAVOK PROB30 TEMPO 2112/2118 10015G25KT DRSA

Observations et prévisions météorologiques de plus de 4000 aéroports (messages METAR et TAF).

Les stations disponibles sont représentées par des disques jaunes et rouges sur la carte.

Passer la souris dessus pour voir le nom de la station.

Cliquer dessus pour voir les observations et prévisions météorologiques.

Pour changer de carte: cliquez sur les boutons verts avec une croix noire pour zoomer, sur le bouton vert avec un tiret pour effectuer un zoom arrière, ou sur les flèches vertes pour les cartes adjacentes.


METAR-TAF: